sensor_id;sensor_type;location;lat;lon;timestamp;P1;durP1;ratioP1;P2;durP2;ratioP2
82147;SDS011;71718;50.480;12.110;2023-10-13T00:01:46;16.65;;;8.13;;
82147;SDS011;71718;50.480;12.110;2023-10-13T00:04:13;14.00;;;8.02;;
82147;SDS011;71718;50.480;12.110;2023-10-13T00:06:40;15.05;;;7.10;;
82147;SDS011;71718;50.480;12.110;2023-10-13T00:09:06;16.05;;;7.97;;
82147;SDS011;71718;50.480;12.110;2023-10-13T00:11:33;17.35;;;8.25;;
82147;SDS011;71718;50.480;12.110;2023-10-13T00:13:59;16.50;;;7.65;;
82147;SDS011;71718;50.480;12.110;2023-10-13T00:16:25;13.98;;;8.10;;
82147;SDS011;71718;50.480;12.110;2023-10-13T00:18:52;15.20;;;8.68;;
82147;SDS011;71718;50.480;12.110;2023-10-13T00:21:19;18.38;;;8.00;;
82147;SDS011;71718;50.480;12.110;2023-10-13T00:23:46;14.23;;;8.63;;
82147;SDS011;71718;50.480;12.110;2023-10-13T00:26:12;16.23;;;8.25;;
82147;SDS011;71718;50.480;12.110;2023-10-13T00:28:39;13.07;;;7.43;;
82147;SDS011;71718;50.480;12.110;2023-10-13T00:31:05;15.40;;;7.70;;
82147;SDS011;71718;50.480;12.110;2023-10-13T00:33:32;16.48;;;8.48;;
82147;SDS011;71718;50.480;12.110;2023-10-13T00:35:58;13.15;;;7.80;;
82147;SDS011;71718;50.480;12.110;2023-10-13T00:38:25;16.60;;;8.73;;
82147;SDS011;71718;50.480;12.110;2023-10-13T00:40:51;12.52;;;8.20;;
82147;SDS011;71718;50.480;12.110;2023-10-13T00:43:18;14.75;;;7.40;;
82147;SDS011;71718;50.480;12.110;2023-10-13T00:45:56;14.15;;;7.38;;
82147;SDS011;71718;50.480;12.110;2023-10-13T00:48:26;11.57;;;7.63;;
82147;SDS011;71718;50.480;12.110;2023-10-13T00:53:23;16.45;;;7.82;;
82147;SDS011;71718;50.480;12.110;2023-10-13T00:55:51;12.32;;;8.20;;
82147;SDS011;71718;50.480;12.110;2023-10-13T00:58:17;14.32;;;8.32;;
82147;SDS011;71718;50.480;12.110;2023-10-13T01:00:45;15.25;;;8.10;;
82147;SDS011;71718;50.480;12.110;2023-10-13T01:03:11;16.17;;;9.38;;
82147;SDS011;71718;50.480;12.110;2023-10-13T01:05:38;18.42;;;8.55;;
82147;SDS011;71718;50.480;12.110;2023-10-13T01:08:06;19.20;;;8.77;;
82147;SDS011;71718;50.480;12.110;2023-10-13T01:10:32;14.13;;;8.75;;
82147;SDS011;71718;50.480;12.110;2023-10-13T01:12:59;16.88;;;8.63;;
82147;SDS011;71718;50.480;12.110;2023-10-13T01:15:25;14.45;;;8.82;;
82147;SDS011;71718;50.480;12.110;2023-10-13T01:17:52;21.65;;;9.93;;
82147;SDS011;71718;50.480;12.110;2023-10-13T01:20:18;17.17;;;8.52;;
82147;SDS011;71718;50.480;12.110;2023-10-13T01:22:45;14.63;;;8.70;;
82147;SDS011;71718;50.480;12.110;2023-10-13T01:25:11;14.57;;;8.43;;
82147;SDS011;71718;50.480;12.110;2023-10-13T01:27:38;15.15;;;8.60;;
82147;SDS011;71718;50.480;12.110;2023-10-13T01:30:05;15.57;;;8.38;;
82147;SDS011;71718;50.480;12.110;2023-10-13T01:32:32;16.80;;;8.75;;
82147;SDS011;71718;50.480;12.110;2023-10-13T01:34:59;13.95;;;8.27;;
82147;SDS011;71718;50.480;12.110;2023-10-13T01:37:26;17.77;;;9.10;;
82147;SDS011;71718;50.480;12.110;2023-10-13T01:39:52;14.52;;;7.82;;
82147;SDS011;71718;50.480;12.110;2023-10-13T01:42:18;15.40;;;8.40;;
82147;SDS011;71718;50.480;12.110;2023-10-13T01:44:45;13.00;;;7.68;;
82147;SDS011;71718;50.480;12.110;2023-10-13T01:47:11;13.73;;;8.30;;
82147;SDS011;71718;50.480;12.110;2023-10-13T01:49:38;16.17;;;7.88;;
82147;SDS011;71718;50.480;12.110;2023-10-13T01:52:04;15.18;;;7.75;;
82147;SDS011;71718;50.480;12.110;2023-10-13T01:54:31;13.98;;;8.80;;
82147;SDS011;71718;50.480;12.110;2023-10-13T01:56:57;17.08;;;8.63;;
82147;SDS011;71718;50.480;12.110;2023-10-13T01:59:24;15.13;;;7.60;;
82147;SDS011;71718;50.480;12.110;2023-10-13T02:01:50;13.57;;;8.10;;
82147;SDS011;71718;50.480;12.110;2023-10-13T02:04:16;12.30;;;8.90;;
82147;SDS011;71718;50.480;12.110;2023-10-13T02:06:43;14.48;;;9.27;;
82147;SDS011;71718;50.480;12.110;2023-10-13T02:09:09;15.70;;;8.93;;
82147;SDS011;71718;50.480;12.110;2023-10-13T02:11:37;15.23;;;7.97;;
82147;SDS011;71718;50.480;12.110;2023-10-13T02:14:06;13.98;;;8.50;;
82147;SDS011;71718;50.480;12.110;2023-10-13T02:16:33;13.98;;;7.18;;
82147;SDS011;71718;50.480;12.110;2023-10-13T02:19:02;19.00;;;8.25;;
82147;SDS011;71718;50.480;12.110;2023-10-13T02:21:32;16.75;;;8.57;;
82147;SDS011;71718;50.480;12.110;2023-10-13T02:23:59;15.43;;;7.78;;
82147;SDS011;71718;50.480;12.110;2023-10-13T02:26:26;14.65;;;7.63;;
82147;SDS011;71718;50.480;12.110;2023-10-13T02:28:52;15.93;;;7.85;;
82147;SDS011;71718;50.480;12.110;2023-10-13T02:31:19;14.00;;;7.93;;
82147;SDS011;71718;50.480;12.110;2023-10-13T02:33:45;13.75;;;7.43;;
82147;SDS011;71718;50.480;12.110;2023-10-13T02:36:12;16.13;;;8.15;;
82147;SDS011;71718;50.480;12.110;2023-10-13T02:38:38;13.65;;;7.15;;
82147;SDS011;71718;50.480;12.110;2023-10-13T02:41:17;12.25;;;7.25;;
82147;SDS011;71718;50.480;12.110;2023-10-13T02:43:45;10.90;;;7.13;;
82147;SDS011;71718;50.480;12.110;2023-10-13T02:46:11;13.63;;;7.88;;
82147;SDS011;71718;50.480;12.110;2023-10-13T02:48:38;14.50;;;7.40;;
82147;SDS011;71718;50.480;12.110;2023-10-13T02:51:04;12.35;;;7.35;;
82147;SDS011;71718;50.480;12.110;2023-10-13T02:53:31;10.85;;;7.60;;
82147;SDS011;71718;50.480;12.110;2023-10-13T02:55:57;14.70;;;7.80;;
82147;SDS011;71718;50.480;12.110;2023-10-13T02:58:24;12.90;;;7.65;;
82147;SDS011;71718;50.480;12.110;2023-10-13T03:00:50;12.90;;;7.97;;
82147;SDS011;71718;50.480;12.110;2023-10-13T03:03:17;12.55;;;7.97;;
82147;SDS011;71718;50.480;12.110;2023-10-13T03:05:43;13.57;;;7.82;;
82147;SDS011;71718;50.480;12.110;2023-10-13T03:08:10;12.30;;;7.70;;
82147;SDS011;71718;50.480;12.110;2023-10-13T03:10:37;12.85;;;8.05;;
82147;SDS011;71718;50.480;12.110;2023-10-13T03:13:03;14.43;;;8.32;;
82147;SDS011;71718;50.480;12.110;2023-10-13T03:15:31;15.00;;;8.68;;
82147;SDS011;71718;50.480;12.110;2023-10-13T03:17:57;16.52;;;7.80;;
82147;SDS011;71718;50.480;12.110;2023-10-13T03:20:23;12.27;;;8.10;;
82147;SDS011;71718;50.480;12.110;2023-10-13T03:22:52;12.35;;;7.32;;
82147;SDS011;71718;50.480;12.110;2023-10-13T03:25:19;15.68;;;8.35;;
82147;SDS011;71718;50.480;12.110;2023-10-13T03:27:45;18.60;;;9.35;;
82147;SDS011;71718;50.480;12.110;2023-10-13T03:30:12;15.43;;;8.15;;
82147;SDS011;71718;50.480;12.110;2023-10-13T03:32:38;19.20;;;9.07;;
82147;SDS011;71718;50.480;12.110;2023-10-13T03:35:05;16.40;;;8.75;;
82147;SDS011;71718;50.480;12.110;2023-10-13T03:37:32;18.50;;;9.38;;
82147;SDS011;71718;50.480;12.110;2023-10-13T03:39:58;17.38;;;9.45;;
82147;SDS011;71718;50.480;12.110;2023-10-13T03:42:24;15.32;;;8.63;;
82147;SDS011;71718;50.480;12.110;2023-10-13T03:44:51;14.95;;;8.88;;
82147;SDS011;71718;50.480;12.110;2023-10-13T03:47:17;15.73;;;8.25;;
82147;SDS011;71718;50.480;12.110;2023-10-13T03:49:44;17.33;;;8.80;;
82147;SDS011;71718;50.480;12.110;2023-10-13T03:52:11;18.20;;;9.73;;
82147;SDS011;71718;50.480;12.110;2023-10-13T03:54:38;13.93;;;8.63;;
82147;SDS011;71718;50.480;12.110;2023-10-13T03:57:04;21.48;;;9.80;;
82147;SDS011;71718;50.480;12.110;2023-10-13T03:59:31;16.80;;;9.55;;
82147;SDS011;71718;50.480;12.110;2023-10-13T04:01:57;15.60;;;8.80;;
82147;SDS011;71718;50.480;12.110;2023-10-13T04:04:24;16.42;;;9.55;;
82147;SDS011;71718;50.480;12.110;2023-10-13T04:06:51;13.88;;;8.60;;
82147;SDS011;71718;50.480;12.110;2023-10-13T04:09:21;14.82;;;8.57;;
82147;SDS011;71718;50.480;12.110;2023-10-13T04:11:48;17.50;;;9.02;;
82147;SDS011;71718;50.480;12.110;2023-10-13T04:14:14;17.13;;;8.90;;
82147;SDS011;71718;50.480;12.110;2023-10-13T04:16:41;14.93;;;8.50;;
82147;SDS011;71718;50.480;12.110;2023-10-13T04:19:07;16.85;;;8.77;;
82147;SDS011;71718;50.480;12.110;2023-10-13T04:21:33;14.50;;;9.57;;
82147;SDS011;71718;50.480;12.110;2023-10-13T04:24:00;17.98;;;9.60;;
82147;SDS011;71718;50.480;12.110;2023-10-13T04:26:26;14.65;;;8.23;;
82147;SDS011;71718;50.480;12.110;2023-10-13T04:28:53;19.52;;;8.73;;
82147;SDS011;71718;50.480;12.110;2023-10-13T04:31:19;14.02;;;8.63;;
82147;SDS011;71718;50.480;12.110;2023-10-13T04:33:45;15.02;;;9.10;;
82147;SDS011;71718;50.480;12.110;2023-10-13T04:36:15;18.48;;;9.32;;
82147;SDS011;71718;50.480;12.110;2023-10-13T04:38:46;17.63;;;8.35;;
82147;SDS011;71718;50.480;12.110;2023-10-13T04:41:13;13.13;;;7.65;;
82147;SDS011;71718;50.480;12.110;2023-10-13T04:43:39;16.33;;;9.10;;
82147;SDS011;71718;50.480;12.110;2023-10-13T04:46:05;17.00;;;9.15;;
82147;SDS011;71718;50.480;12.110;2023-10-13T04:48:32;19.42;;;9.00;;
82147;SDS011;71718;50.480;12.110;2023-10-13T04:50:59;15.63;;;8.35;;
82147;SDS011;71718;50.480;12.110;2023-10-13T04:53:27;15.70;;;7.70;;
82147;SDS011;71718;50.480;12.110;2023-10-13T04:55:54;16.88;;;8.82;;
82147;SDS011;71718;50.480;12.110;2023-10-13T04:58:21;13.60;;;8.48;;
82147;SDS011;71718;50.480;12.110;2023-10-13T05:00:47;16.13;;;8.50;;
82147;SDS011;71718;50.480;12.110;2023-10-13T05:03:14;16.85;;;8.90;;
82147;SDS011;71718;50.480;12.110;2023-10-13T05:05:43;16.08;;;8.55;;
82147;SDS011;71718;50.480;12.110;2023-10-13T05:08:10;15.52;;;8.98;;
82147;SDS011;71718;50.480;12.110;2023-10-13T05:10:37;14.38;;;8.55;;
82147;SDS011;71718;50.480;12.110;2023-10-13T05:13:03;15.57;;;9.15;;
82147;SDS011;71718;50.480;12.110;2023-10-13T05:15:30;15.50;;;8.55;;
82147;SDS011;71718;50.480;12.110;2023-10-13T05:17:56;12.57;;;7.90;;
82147;SDS011;71718;50.480;12.110;2023-10-13T05:20:22;15.25;;;8.20;;
82147;SDS011;71718;50.480;12.110;2023-10-13T05:22:49;13.05;;;9.07;;
82147;SDS011;71718;50.480;12.110;2023-10-13T05:25:15;14.77;;;9.07;;
82147;SDS011;71718;50.480;12.110;2023-10-13T05:27:42;16.00;;;8.20;;
82147;SDS011;71718;50.480;12.110;2023-10-13T05:30:08;17.95;;;9.13;;
82147;SDS011;71718;50.480;12.110;2023-10-13T05:32:35;15.95;;;8.25;;
82147;SDS011;71718;50.480;12.110;2023-10-13T05:35:02;13.43;;;8.80;;
82147;SDS011;71718;50.480;12.110;2023-10-13T05:37:29;13.70;;;8.88;;
82147;SDS011;71718;50.480;12.110;2023-10-13T05:39:55;16.88;;;9.10;;
82147;SDS011;71718;50.480;12.110;2023-10-13T05:42:21;15.75;;;8.18;;
82147;SDS011;71718;50.480;12.110;2023-10-13T05:44:48;14.65;;;7.93;;
82147;SDS011;71718;50.480;12.110;2023-10-13T05:47:15;15.68;;;7.88;;
82147;SDS011;71718;50.480;12.110;2023-10-13T05:49:41;14.38;;;8.07;;
82147;SDS011;71718;50.480;12.110;2023-10-13T05:52:08;14.45;;;7.90;;
82147;SDS011;71718;50.480;12.110;2023-10-13T05:54:34;16.10;;;7.18;;
82147;SDS011;71718;50.480;12.110;2023-10-13T05:57:00;14.05;;;8.13;;
82147;SDS011;71718;50.480;12.110;2023-10-13T05:59:27;15.23;;;7.97;;
82147;SDS011;71718;50.480;12.110;2023-10-13T06:01:54;11.70;;;6.88;;
82147;SDS011;71718;50.480;12.110;2023-10-13T06:04:21;15.20;;;8.02;;
82147;SDS011;71718;50.480;12.110;2023-10-13T06:06:47;12.55;;;7.88;;
82147;SDS011;71718;50.480;12.110;2023-10-13T06:09:14;12.77;;;7.47;;
82147;SDS011;71718;50.480;12.110;2023-10-13T06:11:40;13.32;;;7.45;;
82147;SDS011;71718;50.480;12.110;2023-10-13T06:14:07;13.57;;;7.90;;
82147;SDS011;71718;50.480;12.110;2023-10-13T06:16:33;12.55;;;7.53;;
82147;SDS011;71718;50.480;12.110;2023-10-13T06:19:00;11.00;;;7.15;;
82147;SDS011;71718;50.480;12.110;2023-10-13T06:21:27;12.40;;;7.22;;
82147;SDS011;71718;50.480;12.110;2023-10-13T06:23:53;16.15;;;7.28;;
82147;SDS011;71718;50.480;12.110;2023-10-13T06:26:19;10.90;;;7.18;;
82147;SDS011;71718;50.480;12.110;2023-10-13T06:28:46;14.88;;;7.75;;
82147;SDS011;71718;50.480;12.110;2023-10-13T06:31:12;14.18;;;7.80;;
82147;SDS011;71718;50.480;12.110;2023-10-13T06:33:39;14.25;;;8.20;;
82147;SDS011;71718;50.480;12.110;2023-10-13T06:36:06;14.05;;;7.72;;
82147;SDS011;71718;50.480;12.110;2023-10-13T06:38:32;12.02;;;7.70;;
82147;SDS011;71718;50.480;12.110;2023-10-13T06:40:58;16.30;;;8.27;;
82147;SDS011;71718;50.480;12.110;2023-10-13T06:43:25;14.57;;;8.32;;
82147;SDS011;71718;50.480;12.110;2023-10-13T06:45:53;15.00;;;7.25;;
82147;SDS011;71718;50.480;12.110;2023-10-13T06:48:20;16.15;;;7.53;;
82147;SDS011;71718;50.480;12.110;2023-10-13T06:50:49;14.40;;;7.55;;
82147;SDS011;71718;50.480;12.110;2023-10-13T06:53:16;15.98;;;7.70;;
82147;SDS011;71718;50.480;12.110;2023-10-13T06:55:42;14.70;;;8.05;;
82147;SDS011;71718;50.480;12.110;2023-10-13T06:58:09;14.27;;;7.20;;
82147;SDS011;71718;50.480;12.110;2023-10-13T07:00:35;14.43;;;7.28;;
82147;SDS011;71718;50.480;12.110;2023-10-13T07:03:02;13.48;;;6.90;;
82147;SDS011;71718;50.480;12.110;2023-10-13T07:05:29;15.63;;;7.18;;
82147;SDS011;71718;50.480;12.110;2023-10-13T07:07:55;12.50;;;6.47;;
82147;SDS011;71718;50.480;12.110;2023-10-13T07:10:22;14.85;;;7.13;;
82147;SDS011;71718;50.480;12.110;2023-10-13T07:12:48;14.60;;;7.00;;
82147;SDS011;71718;50.480;12.110;2023-10-13T07:15:15;12.88;;;5.85;;
82147;SDS011;71718;50.480;12.110;2023-10-13T07:17:41;11.90;;;6.55;;
82147;SDS011;71718;50.480;12.110;2023-10-13T07:20:08;11.50;;;6.05;;
82147;SDS011;71718;50.480;12.110;2023-10-13T07:22:35;8.05;;;5.97;;
82147;SDS011;71718;50.480;12.110;2023-10-13T07:25:01;9.23;;;6.10;;
82147;SDS011;71718;50.480;12.110;2023-10-13T07:27:28;12.10;;;6.57;;
82147;SDS011;71718;50.480;12.110;2023-10-13T07:29:55;11.00;;;6.13;;
82147;SDS011;71718;50.480;12.110;2023-10-13T07:32:25;10.23;;;5.75;;
82147;SDS011;71718;50.480;12.110;2023-10-13T07:34:55;10.73;;;5.75;;
82147;SDS011;71718;50.480;12.110;2023-10-13T07:37:22;14.25;;;5.95;;
82147;SDS011;71718;50.480;12.110;2023-10-13T07:39:49;12.98;;;5.63;;
82147;SDS011;71718;50.480;12.110;2023-10-13T07:42:15;16.30;;;6.55;;
82147;SDS011;71718;50.480;12.110;2023-10-13T07:44:42;13.13;;;6.20;;
82147;SDS011;71718;50.480;12.110;2023-10-13T07:47:08;13.45;;;6.22;;
82147;SDS011;71718;50.480;12.110;2023-10-13T07:49:36;12.88;;;6.43;;
82147;SDS011;71718;50.480;12.110;2023-10-13T07:52:08;12.43;;;5.57;;
82147;SDS011;71718;50.480;12.110;2023-10-13T07:54:35;12.15;;;6.57;;
82147;SDS011;71718;50.480;12.110;2023-10-13T07:57:01;14.90;;;5.95;;
82147;SDS011;71718;50.480;12.110;2023-10-13T07:59:28;13.07;;;5.50;;
82147;SDS011;71718;50.480;12.110;2023-10-13T08:01:54;12.57;;;6.05;;
82147;SDS011;71718;50.480;12.110;2023-10-13T08:04:21;8.85;;;5.97;;
82147;SDS011;71718;50.480;12.110;2023-10-13T08:06:48;12.50;;;5.35;;
82147;SDS011;71718;50.480;12.110;2023-10-13T08:09:14;13.02;;;5.93;;
82147;SDS011;71718;50.480;12.110;2023-10-13T08:11:41;13.23;;;6.22;;
82147;SDS011;71718;50.480;12.110;2023-10-13T08:14:07;15.15;;;6.07;;
82147;SDS011;71718;50.480;12.110;2023-10-13T08:16:51;13.93;;;5.95;;
82147;SDS011;71718;50.480;12.110;2023-10-13T08:19:21;11.07;;;6.28;;
82147;SDS011;71718;50.480;12.110;2023-10-13T08:21:49;11.82;;;5.68;;
82147;SDS011;71718;50.480;12.110;2023-10-13T08:24:16;15.10;;;6.95;;
82147;SDS011;71718;50.480;12.110;2023-10-13T08:26:42;13.02;;;5.70;;
82147;SDS011;71718;50.480;12.110;2023-10-13T08:29:08;13.05;;;6.15;;
82147;SDS011;71718;50.480;12.110;2023-10-13T08:31:35;12.23;;;5.93;;
82147;SDS011;71718;50.480;12.110;2023-10-13T08:34:02;14.40;;;5.72;;
82147;SDS011;71718;50.480;12.110;2023-10-13T08:36:28;10.73;;;5.82;;
82147;SDS011;71718;50.480;12.110;2023-10-13T08:38:55;13.95;;;6.35;;
82147;SDS011;71718;50.480;12.110;2023-10-13T08:41:24;13.73;;;6.07;;
82147;SDS011;71718;50.480;12.110;2023-10-13T08:48:46;9.82;;;5.72;;
82147;SDS011;71718;50.480;12.110;2023-10-13T08:51:13;8.65;;;5.43;;
82147;SDS011;71718;50.480;12.110;2023-10-13T08:53:39;12.40;;;5.80;;
82147;SDS011;71718;50.480;12.110;2023-10-13T08:56:10;8.80;;;5.20;;
82147;SDS011;71718;50.480;12.110;2023-10-13T08:58:38;10.27;;;5.43;;
82147;SDS011;71718;50.480;12.110;2023-10-13T09:01:04;11.25;;;5.75;;
82147;SDS011;71718;50.480;12.110;2023-10-13T09:03:30;12.13;;;5.03;;
82147;SDS011;71718;50.480;12.110;2023-10-13T09:05:58;12.63;;;5.68;;
82147;SDS011;71718;50.480;12.110;2023-10-13T09:08:25;11.30;;;5.28;;
82147;SDS011;71718;50.480;12.110;2023-10-13T09:10:51;9.13;;;5.80;;
82147;SDS011;71718;50.480;12.110;2023-10-13T09:13:33;7.05;;;4.45;;
82147;SDS011;71718;50.480;12.110;2023-10-13T09:16:08;10.88;;;5.45;;
82147;SDS011;71718;50.480;12.110;2023-10-13T09:18:35;11.82;;;5.53;;
82147;SDS011;71718;50.480;12.110;2023-10-13T09:21:01;10.18;;;5.32;;
82147;SDS011;71718;50.480;12.110;2023-10-13T09:23:28;11.13;;;5.22;;
82147;SDS011;71718;50.480;12.110;2023-10-13T09:25:54;9.70;;;5.07;;
82147;SDS011;71718;50.480;12.110;2023-10-13T09:28:32;11.43;;;5.65;;
82147;SDS011;71718;50.480;12.110;2023-10-13T09:30:58;7.82;;;4.88;;
82147;SDS011;71718;50.480;12.110;2023-10-13T09:33:28;12.07;;;4.90;;
82147;SDS011;71718;50.480;12.110;2023-10-13T09:35:55;10.02;;;4.70;;
82147;SDS011;71718;50.480;12.110;2023-10-13T09:38:22;10.07;;;5.70;;
82147;SDS011;71718;50.480;12.110;2023-10-13T09:40:49;10.90;;;5.78;;
82147;SDS011;71718;50.480;12.110;2023-10-13T09:43:18;7.43;;;5.00;;
82147;SDS011;71718;50.480;12.110;2023-10-13T09:45:46;13.10;;;4.95;;
82147;SDS011;71718;50.480;12.110;2023-10-13T09:48:13;9.98;;;4.63;;
82147;SDS011;71718;50.480;12.110;2023-10-13T09:50:43;8.63;;;4.55;;
82147;SDS011;71718;50.480;12.110;2023-10-13T09:53:12;12.25;;;5.57;;
82147;SDS011;71718;50.480;12.110;2023-10-13T09:55:41;12.30;;;5.53;;
82147;SDS011;71718;50.480;12.110;2023-10-13T09:58:12;8.90;;;4.72;;
82147;SDS011;71718;50.480;12.110;2023-10-13T10:00:46;8.73;;;5.38;;
82147;SDS011;71718;50.480;12.110;2023-10-13T10:03:16;9.15;;;5.35;;
82147;SDS011;71718;50.480;12.110;2023-10-13T10:05:43;11.45;;;4.95;;
82147;SDS011;71718;50.480;12.110;2023-10-13T10:08:24;15.77;;;4.93;;
82147;SDS011;71718;50.480;12.110;2023-10-13T10:11:00;9.90;;;5.32;;
82147;SDS011;71718;50.480;12.110;2023-10-13T10:19:16;7.63;;;4.57;;
82147;SDS011;71718;50.480;12.110;2023-10-13T10:21:43;9.93;;;4.95;;
82147;SDS011;71718;50.480;12.110;2023-10-13T10:24:16;8.20;;;4.90;;
82147;SDS011;71718;50.480;12.110;2023-10-13T10:26:50;10.90;;;4.40;;
82147;SDS011;71718;50.480;12.110;2023-10-13T10:29:17;12.90;;;5.03;;
82147;SDS011;71718;50.480;12.110;2023-10-13T10:31:44;12.02;;;4.95;;
82147;SDS011;71718;50.480;12.110;2023-10-13T10:34:12;10.70;;;4.38;;
82147;SDS011;71718;50.480;12.110;2023-10-13T10:36:42;11.10;;;4.63;;
82147;SDS011;71718;50.480;12.110;2023-10-13T10:39:09;17.83;;;5.32;;
82147;SDS011;71718;50.480;12.110;2023-10-13T10:41:35;10.38;;;5.40;;
82147;SDS011;71718;50.480;12.110;2023-10-13T10:44:01;10.80;;;4.90;;
82147;SDS011;71718;50.480;12.110;2023-10-13T10:46:28;10.80;;;5.00;;
82147;SDS011;71718;50.480;12.110;2023-10-13T10:48:55;11.18;;;4.75;;
82147;SDS011;71718;50.480;12.110;2023-10-13T10:51:22;8.00;;;4.72;;
82147;SDS011;71718;50.480;12.110;2023-10-13T10:53:52;13.52;;;5.22;;
82147;SDS011;71718;50.480;12.110;2023-10-13T10:56:22;10.82;;;4.88;;
82147;SDS011;71718;50.480;12.110;2023-10-13T10:58:56;11.82;;;5.28;;
82147;SDS011;71718;50.480;12.110;2023-10-13T11:01:24;14.27;;;5.75;;
82147;SDS011;71718;50.480;12.110;2023-10-13T11:06:23;11.65;;;5.35;;
82147;SDS011;71718;50.480;12.110;2023-10-13T11:09:00;9.30;;;4.60;;
82147;SDS011;71718;50.480;12.110;2023-10-13T11:11:28;9.90;;;5.15;;
82147;SDS011;71718;50.480;12.110;2023-10-13T11:13:55;8.77;;;5.00;;
82147;SDS011;71718;50.480;12.110;2023-10-13T11:16:21;10.57;;;5.20;;
82147;SDS011;71718;50.480;12.110;2023-10-13T11:18:48;10.40;;;5.13;;
82147;SDS011;71718;50.480;12.110;2023-10-13T11:21:28;10.27;;;4.72;;
82147;SDS011;71718;50.480;12.110;2023-10-13T11:23:56;10.57;;;4.82;;
82147;SDS011;71718;50.480;12.110;2023-10-13T11:26:32;8.95;;;4.60;;
82147;SDS011;71718;50.480;12.110;2023-10-13T11:29:02;9.07;;;4.65;;
82147;SDS011;71718;50.480;12.110;2023-10-13T11:31:28;9.35;;;5.25;;
82147;SDS011;71718;50.480;12.110;2023-10-13T11:33:55;12.80;;;4.85;;
82147;SDS011;71718;50.480;12.110;2023-10-13T11:36:21;10.05;;;5.35;;
82147;SDS011;71718;50.480;12.110;2023-10-13T11:38:48;13.93;;;5.00;;
82147;SDS011;71718;50.480;12.110;2023-10-13T11:41:15;13.07;;;5.80;;
82147;SDS011;71718;50.480;12.110;2023-10-13T11:43:45;8.10;;;4.68;;
82147;SDS011;71718;50.480;12.110;2023-10-13T11:46:13;8.93;;;4.82;;
82147;SDS011;71718;50.480;12.110;2023-10-13T11:48:44;8.05;;;4.78;;
82147;SDS011;71718;50.480;12.110;2023-10-13T11:51:12;9.90;;;4.95;;
82147;SDS011;71718;50.480;12.110;2023-10-13T11:53:40;7.95;;;4.85;;
82147;SDS011;71718;50.480;12.110;2023-10-13T11:56:08;9.82;;;4.60;;
82147;SDS011;71718;50.480;12.110;2023-10-13T11:58:35;7.75;;;4.40;;
82147;SDS011;71718;50.480;12.110;2023-10-13T12:01:02;8.82;;;4.63;;
82147;SDS011;71718;50.480;12.110;2023-10-13T12:03:29;8.65;;;4.65;;
82147;SDS011;71718;50.480;12.110;2023-10-13T12:05:55;8.73;;;5.07;;
82147;SDS011;71718;50.480;12.110;2023-10-13T12:08:22;11.20;;;4.90;;
82147;SDS011;71718;50.480;12.110;2023-10-13T12:10:48;9.93;;;4.93;;
82147;SDS011;71718;50.480;12.110;2023-10-13T12:13:15;9.02;;;4.53;;
82147;SDS011;71718;50.480;12.110;2023-10-13T12:15:41;8.18;;;5.00;;
82147;SDS011;71718;50.480;12.110;2023-10-13T12:18:07;9.65;;;4.57;;
82147;SDS011;71718;50.480;12.110;2023-10-13T12:20:34;8.07;;;5.88;;
82147;SDS011;71718;50.480;12.110;2023-10-13T12:23:00;10.05;;;4.68;;
82147;SDS011;71718;50.480;12.110;2023-10-13T12:25:27;7.13;;;5.05;;
82147;SDS011;71718;50.480;12.110;2023-10-13T12:27:53;9.80;;;5.20;;
82147;SDS011;71718;50.480;12.110;2023-10-13T12:30:20;10.52;;;4.82;;
82147;SDS011;71718;50.480;12.110;2023-10-13T12:32:47;10.80;;;4.80;;
82147;SDS011;71718;50.480;12.110;2023-10-13T12:35:15;7.78;;;5.07;;
82147;SDS011;71718;50.480;12.110;2023-10-13T12:37:42;8.73;;;4.65;;
82147;SDS011;71718;50.480;12.110;2023-10-13T12:40:12;10.93;;;5.30;;
82147;SDS011;71718;50.480;12.110;2023-10-13T12:42:39;11.00;;;4.70;;
82147;SDS011;71718;50.480;12.110;2023-10-13T12:45:06;9.05;;;5.22;;
82147;SDS011;71718;50.480;12.110;2023-10-13T12:47:32;10.38;;;4.97;;
82147;SDS011;71718;50.480;12.110;2023-10-13T12:49:59;10.73;;;4.65;;
82147;SDS011;71718;50.480;12.110;2023-10-13T12:52:25;8.70;;;4.82;;
82147;SDS011;71718;50.480;12.110;2023-10-13T12:54:52;11.43;;;5.50;;
82147;SDS011;71718;50.480;12.110;2023-10-13T12:57:19;12.50;;;5.53;;
82147;SDS011;71718;50.480;12.110;2023-10-13T12:59:46;10.20;;;4.82;;
82147;SDS011;71718;50.480;12.110;2023-10-13T13:02:12;10.48;;;5.22;;
82147;SDS011;71718;50.480;12.110;2023-10-13T13:04:38;8.77;;;5.05;;
82147;SDS011;71718;50.480;12.110;2023-10-13T13:07:05;8.80;;;4.70;;
82147;SDS011;71718;50.480;12.110;2023-10-13T13:09:31;11.07;;;4.35;;
82147;SDS011;71718;50.480;12.110;2023-10-13T13:11:58;9.98;;;4.88;;
82147;SDS011;71718;50.480;12.110;2023-10-13T13:14:25;12.50;;;5.10;;
82147;SDS011;71718;50.480;12.110;2023-10-13T13:16:51;8.70;;;4.90;;
82147;SDS011;71718;50.480;12.110;2023-10-13T13:19:18;8.50;;;5.03;;
82147;SDS011;71718;50.480;12.110;2023-10-13T13:21:44;7.95;;;4.35;;
82147;SDS011;71718;50.480;12.110;2023-10-13T13:24:11;11.00;;;4.97;;
82147;SDS011;71718;50.480;12.110;2023-10-13T13:26:37;7.85;;;4.70;;
82147;SDS011;71718;50.480;12.110;2023-10-13T13:29:04;8.77;;;4.75;;
82147;SDS011;71718;50.480;12.110;2023-10-13T13:31:30;10.60;;;4.78;;
82147;SDS011;71718;50.480;12.110;2023-10-13T13:33:57;6.65;;;4.78;;
82147;SDS011;71718;50.480;12.110;2023-10-13T13:36:23;6.65;;;4.53;;
82147;SDS011;71718;50.480;12.110;2023-10-13T13:38:50;10.52;;;5.03;;
82147;SDS011;71718;50.480;12.110;2023-10-13T13:41:17;11.88;;;5.03;;
82147;SDS011;71718;50.480;12.110;2023-10-13T13:43:44;9.70;;;4.85;;
82147;SDS011;71718;50.480;12.110;2023-10-13T13:46:11;9.40;;;4.85;;
82147;SDS011;71718;50.480;12.110;2023-10-13T13:48:40;10.63;;;4.43;;
82147;SDS011;71718;50.480;12.110;2023-10-13T13:51:07;7.65;;;4.20;;
82147;SDS011;71718;50.480;12.110;2023-10-13T13:53:34;9.45;;;5.05;;
82147;SDS011;71718;50.480;12.110;2023-10-13T13:56:03;10.48;;;5.07;;
82147;SDS011;71718;50.480;12.110;2023-10-13T13:58:30;11.90;;;4.63;;
82147;SDS011;71718;50.480;12.110;2023-10-13T14:01:02;9.32;;;3.83;;
82147;SDS011;71718;50.480;12.110;2023-10-13T14:03:29;9.68;;;4.95;;
82147;SDS011;71718;50.480;12.110;2023-10-13T14:05:56;7.78;;;4.15;;
82147;SDS011;71718;50.480;12.110;2023-10-13T14:08:26;8.40;;;4.72;;
82147;SDS011;71718;50.480;12.110;2023-10-13T14:10:55;12.50;;;5.40;;
82147;SDS011;71718;50.480;12.110;2023-10-13T14:13:22;8.55;;;4.70;;
82147;SDS011;71718;50.480;12.110;2023-10-13T14:15:48;6.95;;;4.75;;
82147;SDS011;71718;50.480;12.110;2023-10-13T14:18:15;9.23;;;5.05;;
82147;SDS011;71718;50.480;12.110;2023-10-13T14:20:43;6.72;;;4.10;;
82147;SDS011;71718;50.480;12.110;2023-10-13T14:23:09;11.10;;;4.97;;
82147;SDS011;71718;50.480;12.110;2023-10-13T14:25:36;14.40;;;5.20;;
82147;SDS011;71718;50.480;12.110;2023-10-13T14:28:05;9.15;;;4.95;;
82147;SDS011;71718;50.480;12.110;2023-10-13T14:30:32;10.30;;;4.40;;
82147;SDS011;71718;50.480;12.110;2023-10-13T14:32:59;7.57;;;4.40;;
82147;SDS011;71718;50.480;12.110;2023-10-13T14:35:26;7.18;;;4.30;;
82147;SDS011;71718;50.480;12.110;2023-10-13T14:37:53;7.75;;;4.40;;
82147;SDS011;71718;50.480;12.110;2023-10-13T14:40:19;7.90;;;4.57;;